Time;durP1;ratioP1;P1;durP2;ratioP2;P2;SDS_P1;SDS_P2;PMS_P1;PMS_P2;Temp;Humidity;BMP_temperature;BMP_pressure;BME280_temperature;BME280_humidity;BME280_pressure;Samples;Min_cycle;Max_cycle;Signal;HPM_P1;HPM_P2
2021/07/02 00:00:52;;;;;;;7.03;5.90;;;12.60;99.90;;;;;;5065034;28;20413;-83
2021/07/02 00:03:19;;;;;;;6.30;5.70;;;12.60;99.90;;;;;;5072333;28;20520;-83
2021/07/02 00:05:46;;;;;;;6.00;5.40;;;12.60;99.90;;;;;;5068350;28;20384;-82
2021/07/02 00:08:13;;;;;;;5.95;4.95;;;12.60;99.90;;;;;;5069693;28;20402;-84
2021/07/02 00:10:40;;;;;;;5.18;4.78;;;12.60;99.90;;;;;;5067976;28;20474;-83
2021/07/02 00:13:07;;;;;;;4.82;4.53;;;12.60;99.90;;;;;;5055249;28;20410;-84
2021/07/02 00:15:34;;;;;;;4.60;4.30;;;12.80;99.90;;;;;;5053788;28;20932;-85
2021/07/02 00:18:01;;;;;;;4.57;4.28;;;13.10;99.90;;;;;;5057163;28;20727;-84
2021/07/02 00:20:28;;;;;;;3.53;3.22;;;13.40;99.90;;;;;;5051270;28;20387;-85
2021/07/02 00:22:55;;;;;;;2.73;2.60;;;13.80;99.90;;;;;;5051575;28;20441;-84
2021/07/02 00:25:22;;;;;;;3.30;3.00;;;14.60;99.90;;;;;;5050825;28;20935;-84
2021/07/02 00:27:49;;;;;;;3.28;3.00;;;15.00;99.90;;;;;;5051255;28;20391;-84
2021/07/02 00:30:16;;;;;;;2.20;2.10;;;15.00;99.90;;;;;;5058940;28;20390;-85
2021/07/02 00:32:43;;;;;;;2.35;2.25;;;14.80;99.90;;;;;;5070384;28;20471;-83
2021/07/02 00:35:10;;;;;;;2.25;2.10;;;14.70;99.90;;;;;;5071039;28;20787;-86
2021/07/02 00:37:37;;;;;;;2.10;2.00;;;14.40;99.90;;;;;;5071163;28;20403;-85
2021/07/02 00:40:05;;;;;;;2.05;1.95;;;14.30;99.90;;;;;;5071124;28;20385;-86
2021/07/02 00:42:32;;;;;;;2.10;2.00;;;14.20;99.90;;;;;;5058926;28;20406;-83
2021/07/02 00:44:59;;;;;;;1.95;1.85;;;14.20;99.90;;;;;;5052736;28;20399;-83
2021/07/02 00:47:27;;;;;;;1.55;1.45;;;14.20;99.90;;;;;;5076592;28;20482;-83
2021/07/02 00:49:54;;;;;;;1.52;1.42;;;14.20;99.90;;;;;;5061414;28;20488;-83
2021/07/02 00:52:21;;;;;;;1.38;1.38;;;14.20;99.90;;;;;;5049872;28;20380;-83
2021/07/02 00:54:50;;;;;;;1.20;1.08;;;14.30;99.90;;;;;;5051104;28;20734;-83
2021/07/02 00:57:17;;;;;;;1.50;1.00;;;14.30;99.90;;;;;;5051898;28;20430;-81
2021/07/02 00:59:44;;;;;;;0.82;0.82;;;14.50;99.90;;;;;;5057961;28;20403;-84
2021/07/02 01:02:11;;;;;;;2.80;0.90;;;14.60;99.90;;;;;;5051356;28;20433;-86
2021/07/02 01:04:38;;;;;;;1.02;0.80;;;14.70;99.90;;;;;;5050778;28;20380;-86
2021/07/02 01:07:06;;;;;;;0.80;0.75;;;14.80;99.90;;;;;;5054461;28;20383;-87
2021/07/02 01:09:33;;;;;;;0.90;0.60;;;14.90;99.90;;;;;;5070326;28;20477;-84
2021/07/02 01:12:01;;;;;;;0.50;0.50;;;14.90;99.90;;;;;;5062510;28;20487;-84
2021/07/02 01:14:28;;;;;;;0.83;0.60;;;15.10;99.90;;;;;;5055684;28;20402;-86
2021/07/02 01:16:58;;;;;;;0.90;0.60;;;15.10;99.90;;;;;;5052314;28;20391;-83
2021/07/02 01:19:25;;;;;;;1.00;0.60;;;15.10;99.90;;;;;;5064572;28;20414;-86
2021/07/02 01:21:54;;;;;;;0.57;0.57;;;15.30;99.90;;;;;;5060775;28;20515;-87
2021/07/02 01:24:23;;;;;;;0.50;0.50;;;15.30;99.90;;;;;;5057514;28;20881;-83
2021/07/02 01:26:51;;;;;;;0.70;0.70;;;15.30;99.90;;;;;;5050326;28;20384;-87
2021/07/02 01:29:20;;;;;;;0.80;0.40;;;15.40;99.90;;;;;;5050640;28;20376;-84
2021/07/02 01:31:48;;;;;;;1.30;0.50;;;15.50;99.90;;;;;;5057382;28;20382;-86
2021/07/02 01:34:15;;;;;;;0.28;0.28;;;15.60;99.90;;;;;;5063419;28;20390;-84
2021/07/02 01:36:42;;;;;;;1.38;0.50;;;15.60;99.90;;;;;;5069584;28;20389;-85
2021/07/02 01:39:09;;;;;;;0.90;0.50;;;15.70;99.90;;;;;;5050522;28;20491;-83
2021/07/02 01:41:36;;;;;;;0.40;0.30;;;15.80;99.90;;;;;;5052523;28;20489;-84
2021/07/02 01:44:03;;;;;;;1.20;0.30;;;15.70;99.90;;;;;;5058088;28;20407;-82
2021/07/02 01:46:32;;;;;;;0.50;0.30;;;15.80;99.90;;;;;;5063646;28;20383;-82
2021/07/02 01:48:59;;;;;;;1.70;0.30;;;15.80;99.90;;;;;;5063095;28;20394;-83
2021/07/02 01:51:26;;;;;;;0.20;0.20;;;15.80;99.90;;;;;;5066489;28;20390;-83
2021/07/02 01:53:53;;;;;;;0.40;0.30;;;15.90;99.90;;;;;;5063360;28;20452;-85
2021/07/02 01:56:20;;;;;;;0.38;0.28;;;16.00;99.90;;;;;;5069996;28;20472;-83
2021/07/02 01:58:48;;;;;;;0.30;0.20;;;16.00;99.90;;;;;;5062822;28;20868;-84
2021/07/02 02:01:15;;;;;;;0.60;0.15;;;15.90;99.90;;;;;;5051068;28;20476;-84
2021/07/02 02:03:42;;;;;;;0.17;0.17;;;15.90;99.90;;;;;;5057693;28;20405;-84
2021/07/02 02:06:09;;;;;;;0.20;0.20;;;16.00;99.90;;;;;;5070160;28;20378;-84
2021/07/02 02:08:36;;;;;;;0.70;0.30;;;16.10;99.90;;;;;;5069810;28;20462;-84
2021/07/02 02:11:03;;;;;;;1.20;0.28;;;16.20;99.90;;;;;;5068462;28;20378;-87
2021/07/02 02:13:30;;;;;;;1.70;0.20;;;16.20;99.90;;;;;;5063328;28;20395;-87
2021/07/02 02:15:57;;;;;;;0.98;0.10;;;16.30;99.90;;;;;;5049541;28;20368;-84
2021/07/02 02:18:24;;;;;;;0.20;0.10;;;16.40;99.90;;;;;;5049416;28;20897;-84
2021/07/02 02:20:51;;;;;;;0.10;0.10;;;16.40;99.90;;;;;;5056366;28;20387;-82
2021/07/02 02:23:18;;;;;;;0.10;0.10;;;16.40;99.90;;;;;;5057000;28;20381;-85
2021/07/02 02:25:45;;;;;;;0.08;0.08;;;16.40;99.90;;;;;;5056273;28;20368;-84
2021/07/02 02:28:13;;;;;;;0.10;0.10;;;16.50;99.90;;;;;;5077306;28;20384;-83
2021/07/02 02:30:39;;;;;;;0.08;0.08;;;16.60;99.90;;;;;;5086865;28;20396;-84
2021/07/02 02:33:08;;;;;;;0.15;0.10;;;16.60;99.90;;;;;;5064995;28;20521;-82
2021/07/02 02:35:35;;;;;;;0.10;0.10;;;16.70;99.90;;;;;;5060713;28;20387;-83
2021/07/02 02:38:03;;;;;;;0.10;0.10;;;16.60;99.90;;;;;;5056780;28;20413;-83
2021/07/02 02:40:30;;;;;;;0.10;0.10;;;16.70;99.90;;;;;;5069377;28;20385;-83
2021/07/02 02:43:03;;;;;;;0.10;0.10;;;16.70;99.90;;;;;;5068205;28;20402;-82
2021/07/02 02:45:30;;;;;;;0.30;0.30;;;16.80;99.90;;;;;;5069954;28;20374;-84
2021/07/02 02:47:57;;;;;;;0.10;0.10;;;16.90;99.90;;;;;;5065516;28;20743;-81
2021/07/02 02:50:24;;;;;;;0.20;0.10;;;17.00;99.90;;;;;;5059733;28;20468;-83
2021/07/02 02:52:51;;;;;;;0.77;0.10;;;17.00;99.90;;;;;;5061973;28;20389;-82
2021/07/02 02:55:18;;;;;;;0.20;0.10;;;16.90;99.90;;;;;;5055709;28;20782;-84
2021/07/02 02:57:45;;;;;;;0.30;0.15;;;17.00;99.90;;;;;;5059149;28;20420;-83
2021/07/02 03:00:14;;;;;;;0.90;0.20;;;17.20;99.90;;;;;;5061540;28;20487;-82
2021/07/02 03:02:41;;;;;;;0.17;0.17;;;17.10;99.90;;;;;;5069262;28;20377;-82
2021/07/02 03:05:08;;;;;;;0.50;0.20;;;17.10;99.90;;;;;;5065059;28;20396;-81
2021/07/02 03:07:36;;;;;;;0.10;0.10;;;17.00;99.90;;;;;;5050161;28;20392;-84
2021/07/02 03:10:04;;;;;;;0.85;0.10;;;17.10;99.90;;;;;;5056634;28;20889;-82
2021/07/02 03:12:31;;;;;;;0.15;0.10;;;17.10;99.90;;;;;;5065926;28;20364;-81
2021/07/02 03:14:58;;;;;;;0.30;0.10;;;17.10;99.90;;;;;;5085360;28;20382;-80
2021/07/02 03:17:25;;;;;;;0.30;0.10;;;17.20;99.90;;;;;;5068038;28;20432;-84
2021/07/02 03:19:52;;;;;;;0.10;0.10;;;17.30;99.90;;;;;;5067150;28;20424;-82
2021/07/02 03:22:19;;;;;;;0.60;0.20;;;17.40;99.90;;;;;;5048531;28;20368;-81
2021/07/02 03:24:46;;;;;;;0.10;0.10;;;17.40;99.90;;;;;;5048713;28;20387;-82
2021/07/02 03:27:13;;;;;;;0.10;0.10;;;17.50;99.90;;;;;;5054173;28;20469;-83
2021/07/02 03:29:40;;;;;;;0.10;0.10;;;17.50;99.90;;;;;;5072281;28;20902;-82
2021/07/02 03:32:09;;;;;;;0.10;0.10;;;17.50;99.90;;;;;;5074664;28;20533;-83
2021/07/02 03:34:38;;;;;;;0.20;0.10;;;17.30;99.90;;;;;;5052201;28;20414;-83
2021/07/02 03:37:06;;;;;;;0.00;0.00;;;17.30;99.90;;;;;;5061681;28;20450;-84
2021/07/02 03:39:33;;;;;;;0.17;0.17;;;17.40;99.90;;;;;;5064649;28;20409;-82
2021/07/02 03:42:00;;;;;;;0.10;0.10;;;17.40;99.90;;;;;;5060802;28;20398;-84
2021/07/02 03:44:27;;;;;;;0.10;0.10;;;17.40;99.90;;;;;;5060461;28;20401;-84
2021/07/02 03:46:54;;;;;;;0.10;0.10;;;17.50;99.90;;;;;;5067036;28;20373;-83
2021/07/02 03:49:21;;;;;;;0.05;0.05;;;17.40;99.90;;;;;;5058632;28;20396;-82
2021/07/02 03:51:49;;;;;;;0.10;0.10;;;17.50;99.90;;;;;;5057940;28;20402;-84
2021/07/02 03:54:16;;;;;;;0.10;0.10;;;17.40;99.90;;;;;;5057268;28;20894;-83
2021/07/02 03:59:29;;;;;;;0.15;0.00;;;17.50;99.90;;;;;;5052370;28;20417;-84
2021/07/02 04:01:56;;;;;;;0.10;0.10;;;17.60;99.90;;;;;;5055531;28;20453;-82
2021/07/02 04:04:23;;;;;;;0.90;0.10;;;17.60;99.90;;;;;;5069475;28;20392;-81
2021/07/02 04:06:50;;;;;;;0.10;0.10;;;17.50;99.90;;;;;;5058954;28;20430;-82
2021/07/02 04:09:17;;;;;;;0.15;0.15;;;17.50;99.90;;;;;;5051208;28;20492;-82
2021/07/02 04:11:44;;;;;;;0.00;0.00;;;17.50;99.90;;;;;;5052026;28;20403;-82
2021/07/02 04:14:11;;;;;;;0.60;0.20;;;17.60;99.90;;;;;;5062265;28;20944;-83
2021/07/02 04:16:38;;;;;;;0.40;0.20;;;17.60;99.90;;;;;;5060478;28;20471;-82
2021/07/02 04:19:05;;;;;;;0.15;0.10;;;17.60;99.90;;;;;;5052151;28;20414;-84
2021/07/02 04:21:33;;;;;;;0.82;0.00;;;17.60;99.90;;;;;;5051777;28;20372;-82
2021/07/02 04:24:00;;;;;;;0.10;0.10;;;17.70;99.90;;;;;;5059866;28;20883;-81
2021/07/02 04:26:27;;;;;;;0.03;0.00;;;17.60;99.90;;;;;;5053601;28;20384;-82
2021/07/02 04:28:53;;;;;;;0.10;0.10;;;17.60;99.90;;;;;;5060595;28;20388;-82
2021/07/02 04:31:20;;;;;;;0.08;0.00;;;17.50;99.90;;;;;;5070017;28;20461;-82
2021/07/02 04:33:47;;;;;;;0.00;0.00;;;17.50;99.90;;;;;;5070813;28;20888;-81
2021/07/02 04:36:15;;;;;;;0.30;0.15;;;17.50;99.90;;;;;;5071420;28;21536;-82
2021/07/02 04:38:43;;;;;;;0.10;0.05;;;17.40;99.90;;;;;;5061095;28;20573;-82
2021/07/02 04:41:10;;;;;;;0.00;0.00;;;17.40;99.90;;;;;;5069513;28;20401;-82
2021/07/02 04:43:37;;;;;;;0.30;0.10;;;17.50;99.90;;;;;;5054062;28;20399;-83
2021/07/02 04:46:04;;;;;;;0.03;0.03;;;17.40;99.90;;;;;;5066421;28;20547;-82
2021/07/02 04:48:31;;;;;;;0.13;0.10;;;17.50;99.90;;;;;;5054429;28;20383;-82
2021/07/02 04:50:58;;;;;;;0.35;0.20;;;17.40;99.90;;;;;;5055391;28;20406;-82
2021/07/02 04:53:26;;;;;;;0.07;0.00;;;17.30;99.90;;;;;;5051792;28;20370;-82
2021/07/02 04:55:53;;;;;;;0.50;0.10;;;17.40;99.90;;;;;;5051113;28;20402;-81
2021/07/02 04:58:21;;;;;;;0.10;0.10;;;17.40;99.90;;;;;;5050699;28;20411;-86
2021/07/02 05:00:48;;;;;;;0.10;0.10;;;17.30;99.90;;;;;;5049325;28;21097;-85
2021/07/02 05:03:16;;;;;;;0.20;0.10;;;17.30;99.90;;;;;;5051163;28;20395;-83
2021/07/02 05:05:43;;;;;;;1.00;0.00;;;17.20;99.90;;;;;;5051079;28;20394;-81
2021/07/02 05:08:12;;;;;;;0.50;0.00;;;17.10;99.90;;;;;;5051052;28;20396;-81
2021/07/02 05:10:41;;;;;;;0.10;0.10;;;17.10;99.90;;;;;;5060303;28;20480;-83
2021/07/02 05:13:09;;;;;;;0.10;0.10;;;17.00;99.90;;;;;;5050509;28;20397;-82
2021/07/02 05:15:36;;;;;;;1.10;0.10;;;17.00;99.90;;;;;;5061921;28;20380;-82
2021/07/02 05:18:04;;;;;;;0.03;0.03;;;17.00;99.90;;;;;;5051132;28;20823;-83
2021/07/02 05:20:30;;;;;;;0.10;0.10;;;17.00;99.90;;;;;;5052033;28;20882;-83
2021/07/02 05:22:57;;;;;;;0.00;0.00;;;16.80;99.90;;;;;;5050240;28;20400;-84
2021/07/02 05:25:24;;;;;;;0.40;0.10;;;16.80;99.90;;;;;;5053041;28;20562;-82
2021/07/02 05:27:51;;;;;;;0.50;0.10;;;16.80;99.90;;;;;;5050129;28;20434;-82
2021/07/02 05:30:19;;;;;;;1.20;0.20;;;16.70;99.90;;;;;;5050671;28;20396;-82
2021/07/02 05:32:46;;;;;;;0.10;0.10;;;16.70;99.90;;;;;;5056257;28;20381;-81
2021/07/02 05:35:13;;;;;;;0.32;0.10;;;16.60;99.90;;;;;;5071515;28;20772;-83
2021/07/02 05:37:44;;;;;;;0.25;0.15;;;16.60;99.90;;;;;;5065480;28;20394;-83
2021/07/02 05:40:13;;;;;;;0.00;0.00;;;16.60;99.90;;;;;;5057685;28;20398;-83
2021/07/02 05:42:41;;;;;;;0.00;0.00;;;16.60;99.90;;;;;;5067652;28;20909;-84
2021/07/02 05:45:08;;;;;;;0.20;0.10;;;16.60;99.90;;;;;;5080102;28;20900;-83
2021/07/02 05:47:50;;;;;;;0.00;0.00;;;16.50;99.90;;;;;;5070016;28;20420;-82
2021/07/02 05:50:18;;;;;;;0.20;0.13;;;16.50;99.90;;;;;;5069855;28;20366;-83
2021/07/02 05:52:47;;;;;;;0.15;0.15;;;16.40;99.90;;;;;;5068880;28;20381;-83
2021/07/02 05:55:14;;;;;;;0.10;0.10;;;16.40;99.90;;;;;;5058967;28;20390;-84
2021/07/02 05:57:41;;;;;;;0.10;0.10;;;16.30;99.90;;;;;;5065195;28;20910;-84
2021/07/02 06:00:10;;;;;;;0.45;0.10;;;16.30;99.90;;;;;;5059509;28;20391;-82
2021/07/02 06:02:37;;;;;;;0.10;0.10;;;16.20;99.90;;;;;;5069656;28;20374;-84
2021/07/02 06:05:05;;;;;;;0.10;0.03;;;16.10;99.90;;;;;;5073674;28;20388;-81
2021/07/02 06:07:56;;;;;;;1.60;0.10;;;16.10;99.90;;;;;;5068025;28;20377;-82
2021/07/02 06:10:46;;;;;;;0.20;0.20;;;16.00;99.90;;;;;;5081407;28;20384;-81
2021/07/02 06:13:13;;;;;;;0.35;0.10;;;15.80;99.90;;;;;;5080399;28;20389;-82
2021/07/02 06:15:40;;;;;;;0.45;0.20;;;15.80;99.90;;;;;;5059980;28;20949;-82
2021/07/02 06:18:09;;;;;;;0.30;0.20;;;15.60;99.90;;;;;;5049751;28;20881;-80
2021/07/02 06:20:36;;;;;;;0.17;0.10;;;15.50;99.90;;;;;;5065097;28;20809;-80
2021/07/02 06:23:04;;;;;;;0.80;0.20;;;15.40;99.90;;;;;;5063201;28;20390;-82
2021/07/02 06:25:31;;;;;;;0.40;0.40;;;15.40;99.90;;;;;;5069400;28;20787;-82
2021/07/02 06:27:58;;;;;;;0.70;0.65;;;15.30;99.90;;;;;;5067501;28;20401;-83
2021/07/02 06:30:25;;;;;;;1.80;1.70;;;15.20;99.90;;;;;;5067979;28;20466;-82
2021/07/02 06:32:52;;;;;;;1.85;1.75;;;15.10;99.90;;;;;;5049072;28;20372;-82
2021/07/02 06:35:19;;;;;;;2.42;2.22;;;15.10;99.90;;;;;;5059328;28;20421;-82
2021/07/02 06:37:49;;;;;;;2.27;2.17;;;15.00;99.90;;;;;;5063335;28;20489;-82
2021/07/02 06:40:18;;;;;;;2.35;1.80;;;14.90;99.90;;;;;;5058728;28;20388;-82
2021/07/02 06:42:45;;;;;;;1.88;1.77;;;14.90;99.90;;;;;;5068259;28;20398;-82
2021/07/02 06:45:13;;;;;;;1.40;1.30;;;14.80;99.90;;;;;;5069034;28;20382;-82
2021/07/02 06:48:02;;;;;;;1.30;1.10;;;14.70;99.90;;;;;;5069075;28;20362;-82
2021/07/02 06:50:32;;;;;;;1.23;1.13;;;14.60;99.90;;;;;;5068516;28;20382;-82
2021/07/02 06:53:02;;;;;;;1.08;0.98;;;14.60;99.90;;;;;;5048817;28;20371;-81
2021/07/02 06:55:29;;;;;;;1.70;0.88;;;14.40;99.90;;;;;;5048857;28;20410;-82
2021/07/02 06:57:56;;;;;;;1.60;1.00;;;14.40;99.90;;;;;;5048678;28;20423;-82
2021/07/02 07:00:24;;;;;;;0.90;0.90;;;14.30;99.90;;;;;;5048889;28;20376;-82
2021/07/02 07:02:51;;;;;;;1.25;1.15;;;14.20;99.90;;;;;;5049462;28;20376;-83
2021/07/02 07:05:18;;;;;;;1.77;1.67;;;14.10;99.90;;;;;;5048815;28;20895;-83
2021/07/02 07:07:46;;;;;;;1.98;1.80;;;14.00;99.90;;;;;;5048524;28;20371;-83
2021/07/02 07:10:13;;;;;;;2.63;2.42;;;13.90;99.90;;;;;;5048692;28;20371;-83
2021/07/02 07:12:40;;;;;;;2.33;2.22;;;13.80;99.90;;;;;;5048552;28;20436;-83
2021/07/02 07:15:08;;;;;;;2.90;2.70;;;13.70;99.90;;;;;;5057313;28;20378;-82
2021/07/02 07:17:35;;;;;;;2.85;2.65;;;13.60;99.90;;;;;;5060837;28;20717;-83
2021/07/02 07:20:03;;;;;;;4.22;3.92;;;13.60;99.90;;;;;;5066638;28;20397;-83
2021/07/02 07:22:32;;;;;;;3.70;2.70;;;13.50;99.90;;;;;;5051314;28;20387;-85
2021/07/02 07:24:59;;;;;;;2.35;2.25;;;13.40;99.90;;;;;;5048868;28;20475;-84
2021/07/02 07:27:26;;;;;;;1.50;1.40;;;13.40;99.90;;;;;;5048990;28;21093;-83
2021/07/02 07:29:53;;;;;;;1.40;1.30;;;13.30;99.90;;;;;;5050960;28;20801;-84
2021/07/02 07:32:21;;;;;;;1.20;1.13;;;13.30;99.90;;;;;;5052802;28;20466;-84
2021/07/02 07:34:52;;;;;;;1.50;1.40;;;13.30;99.90;;;;;;5072125;28;20390;-83
2021/07/02 07:37:20;;;;;;;3.10;2.80;;;13.30;99.90;;;;;;5072410;28;20366;-85
2021/07/02 07:39:49;;;;;;;14.77;13.38;;;13.20;99.90;;;;;;5070611;28;20758;-84
2021/07/02 07:42:16;;;;;;;13.82;12.48;;;13.20;99.90;;;;;;5057975;28;20399;-86
2021/07/02 07:44:43;;;;;;;5.85;5.35;;;13.10;99.90;;;;;;5066459;28;20399;-86
2021/07/02 07:47:10;;;;;;;3.63;3.33;;;13.10;99.90;;;;;;5063770;28;20380;-88
2021/07/02 07:49:38;;;;;;;2.30;2.10;;;13.10;99.90;;;;;;5063447;28;20480;-87
2021/07/02 07:54:50;;;;;;;4.70;2.58;;;13.20;99.90;;;;;;5059742;28;20380;-87
2021/07/02 07:57:17;;;;;;;2.63;2.33;;;13.10;99.90;;;;;;5065587;28;20417;-86
2021/07/02 07:59:44;;;;;;;3.20;2.45;;;13.00;99.90;;;;;;5070513;28;20406;-86
2021/07/02 08:02:11;;;;;;;1.83;1.73;;;13.00;99.90;;;;;;5060650;28;20498;-86
2021/07/02 08:04:38;;;;;;;1.90;1.80;;;12.90;99.90;;;;;;5055688;28;20919;-85
2021/07/02 08:07:05;;;;;;;3.22;2.10;;;12.80;99.90;;;;;;5051959;28;20859;-86
2021/07/02 08:09:32;;;;;;;4.20;2.00;;;12.80;99.90;;;;;;5053142;28;20886;-86
2021/07/02 08:11:59;;;;;;;5.07;2.20;;;12.70;99.90;;;;;;5067388;28;20399;-87
2021/07/02 08:14:26;;;;;;;2.60;2.30;;;12.70;99.90;;;;;;5070172;28;20402;-87
2021/07/02 08:16:53;;;;;;;2.60;2.40;;;12.60;99.90;;;;;;5069390;28;20397;-87
2021/07/02 08:19:20;;;;;;;2.60;2.40;;;12.70;99.90;;;;;;5057972;28;20410;-87
2021/07/02 08:21:47;;;;;;;2.30;2.10;;;12.70;99.90;;;;;;5055047;28;20384;-87
2021/07/02 08:24:14;;;;;;;2.28;2.13;;;12.70;99.90;;;;;;5060483;28;20386;-86
2021/07/02 08:26:42;;;;;;;2.70;2.47;;;12.70;99.90;;;;;;5064628;28;20407;-85
2021/07/02 08:29:30;;;;;;;2.30;2.10;;;12.70;99.90;;;;;;5065712;28;20401;-87
2021/07/02 08:31:58;;;;;;;2.50;2.30;;;12.70;99.90;;;;;;5070712;28;20366;-87
2021/07/02 08:34:29;;;;;;;3.10;2.80;;;12.60;99.90;;;;;;5062357;28;20434;-88
2021/07/02 08:36:56;;;;;;;5.53;4.60;;;12.50;99.90;;;;;;5071029;28;20366;-87
2021/07/02 08:39:23;;;;;;;3.63;2.90;;;12.50;99.90;;;;;;5053416;28;20410;-86
2021/07/02 08:41:50;;;;;;;3.00;2.70;;;12.40;99.90;;;;;;5061840;28;20520;-86
2021/07/02 08:44:17;;;;;;;2.58;2.38;;;12.40;99.90;;;;;;5060432;28;20819;-86
2021/07/02 08:46:49;;;;;;;2.35;2.15;;;12.40;99.90;;;;;;5068202;28;20736;-87
2021/07/02 08:49:18;;;;;;;2.78;2.15;;;12.40;99.90;;;;;;5051498;28;20453;-85
2021/07/02 08:51:45;;;;;;;2.10;1.95;;;12.40;99.90;;;;;;5055586;28;20398;-86
2021/07/02 08:54:14;;;;;;;3.15;1.92;;;12.40;99.90;;;;;;5051658;28;20392;-87
2021/07/02 08:56:55;;;;;;;1.80;1.70;;;12.40;99.90;;;;;;5051732;28;20495;-86
2021/07/02 08:59:24;;;;;;;2.17;1.83;;;12.50;99.90;;;;;;5055431;28;20393;-85
2021/07/02 09:01:51;;;;;;;2.30;2.00;;;12.50;99.90;;;;;;5071441;28;20522;-86
2021/07/02 09:04:39;;;;;;;2.37;2.17;;;12.50;99.90;;;;;;5071391;28;20385;-86
2021/07/02 09:07:10;;;;;;;2.50;2.30;;;12.50;99.90;;;;;;5061979;28;20470;-86
2021/07/02 09:09:49;;;;;;;3.78;2.25;;;12.50;99.90;;;;;;5056093;28;20627;-85
2021/07/02 09:12:18;;;;;;;2.78;2.50;;;12.50;99.90;;;;;;5067082;28;20411;-86
2021/07/02 09:14:58;;;;;;;3.33;3.03;;;12.50;99.90;;;;;;5069450;28;20389;-88
2021/07/02 09:17:25;;;;;;;4.93;4.43;;;12.50;99.90;;;;;;5066881;28;20390;-85
2021/07/02 09:20:18;;;;;;;5.25;4.68;;;12.40;99.90;;;;;;5063126;28;20414;-86
2021/07/02 09:22:53;;;;;;;6.60;5.07;;;12.40;99.90;;;;;;5054349;28;20501;-87
2021/07/02 09:25:23;;;;;;;4.10;3.75;;;12.40;99.90;;;;;;5056275;28;20409;-87
2021/07/02 09:27:52;;;;;;;5.50;4.40;;;12.40;99.90;;;;;;5061308;28;20444;-87
2021/07/02 09:30:22;;;;;;;3.78;3.40;;;12.40;99.90;;;;;;5054526;28;21683;-86
2021/07/02 09:32:51;;;;;;;4.35;3.95;;;12.40;99.90;;;;;;5058148;28;20386;-87
2021/07/02 09:35:20;;;;;;;4.38;3.58;;;12.40;99.90;;;;;;5057195;28;20383;-84
2021/07/02 09:37:57;;;;;;;4.30;3.90;;;12.30;99.90;;;;;;5055385;28;20399;-86
2021/07/02 09:40:27;;;;;;;3.80;3.50;;;12.30;99.90;;;;;;5049560;28;20752;-88
2021/07/02 09:43:09;;;;;;;3.30;2.60;;;12.30;99.90;;;;;;5058600;28;20398;-86
2021/07/02 09:45:53;;;;;;;4.22;3.83;;;12.30;99.90;;;;;;5060399;28;20457;-87
2021/07/02 09:48:30;;;;;;;5.70;4.85;;;12.20;99.90;;;;;;5070939;28;21178;-86
2021/07/02 09:51:10;;;;;;;4.43;4.10;;;12.10;99.90;;;;;;5053189;28;20471;-86
2021/07/02 09:53:37;;;;;;;3.67;3.38;;;12.00;99.90;;;;;;5053457;28;20449;-87
2021/07/02 09:56:10;;;;;;;3.30;3.00;;;12.00;99.90;;;;;;5050649;28;20374;-87
2021/07/02 09:58:41;;;;;;;2.58;2.38;;;11.90;99.90;;;;;;5053029;28;20916;-87
2021/07/02 10:01:10;;;;;;;2.10;1.90;;;11.90;99.90;;;;;;5054148;28;20394;-84
2021/07/02 10:03:38;;;;;;;2.10;2.00;;;12.00;99.90;;;;;;5060080;28;20487;-86
2021/07/02 10:06:27;;;;;;;2.20;2.00;;;12.10;99.90;;;;;;5059689;28;20387;-86
2021/07/02 10:08:55;;;;;;;2.13;1.60;;;12.10;99.90;;;;;;5058287;28;20404;-84
2021/07/02 10:11:23;;;;;;;2.97;2.30;;;12.20;99.90;;;;;;5050133;28;20386;-85
2021/07/02 10:13:51;;;;;;;2.53;1.95;;;12.10;99.90;;;;;;5066609;28;20390;-84
2021/07/02 10:16:18;;;;;;;3.63;2.90;;;12.20;99.90;;;;;;5063040;28;20405;-85
2021/07/02 10:18:49;;;;;;;3.40;3.10;;;12.00;99.90;;;;;;5061577;28;20419;-90
2021/07/02 10:21:23;;;;;;;3.72;3.42;;;11.90;99.90;;;;;;5054373;28;20419;-86
2021/07/02 10:23:54;;;;;;;6.70;6.00;;;11.90;99.90;;;;;;5051066;28;20440;-84
2021/07/02 10:26:22;;;;;;;4.20;3.45;;;11.80;99.90;;;;;;5054924;28;20885;-85
2021/07/02 10:28:49;;;;;;;3.75;3.45;;;11.80;99.90;;;;;;5049759;28;20734;-86
2021/07/02 10:31:17;;;;;;;2.78;2.05;;;11.80;99.90;;;;;;5055556;28;20402;-85
2021/07/02 10:33:50;;;;;;;1.40;1.30;;;11.80;99.90;;;;;;5049614;28;20898;-85
2021/07/02 10:36:18;;;;;;;1.52;1.42;;;11.90;99.90;;;;;;5054040;28;20399;-85
2021/07/02 10:38:46;;;;;;;2.25;1.08;;;11.90;99.90;;;;;;5081247;28;20385;-85
2021/07/02 10:41:18;;;;;;;1.90;1.10;;;12.00;99.90;;;;;;5074679;28;20396;-87
2021/07/02 10:44:08;;;;;;;1.70;0.70;;;12.00;99.90;;;;;;5055250;28;20387;-86
2021/07/02 10:47:00;;;;;;;0.90;0.90;;;12.00;99.90;;;;;;5054336;28;20948;-86
2021/07/02 10:49:38;;;;;;;2.03;1.60;;;12.00;99.90;;;;;;5051590;28;20500;-86
2021/07/02 10:52:29;;;;;;;1.70;1.00;;;12.00;99.90;;;;;;5065847;28;20540;-87
2021/07/02 10:54:58;;;;;;;1.58;1.20;;;12.00;99.90;;;;;;5051871;28;20371;-86
2021/07/02 10:57:26;;;;;;;1.27;1.17;;;12.00;99.90;;;;;;5062163;28;20385;-87
2021/07/02 10:59:53;;;;;;;1.70;1.27;;;11.90;99.90;;;;;;5060997;28;20465;-89
2021/07/02 11:02:25;;;;;;;1.13;1.13;;;11.90;99.90;;;;;;5053674;28;20402;-87
2021/07/02 11:04:55;;;;;;;1.45;1.10;;;11.80;99.90;;;;;;5079816;28;20509;-88
2021/07/02 11:07:22;;;;;;;1.20;1.20;;;11.80;99.90;;;;;;5066034;28;20695;-87
2021/07/02 11:09:49;;;;;;;1.13;1.10;;;11.70;99.90;;;;;;5072213;28;20768;-87
2021/07/02 11:12:23;;;;;;;1.30;1.20;;;11.70;99.90;;;;;;5057349;28;20934;-86
2021/07/02 11:14:53;;;;;;;1.13;1.05;;;11.70;99.90;;;;;;5060724;28;20398;-86
2021/07/02 11:17:35;;;;;;;1.40;1.30;;;11.60;99.90;;;;;;5075334;28;20913;-85
2021/07/02 11:20:09;;;;;;;2.28;1.20;;;11.50;99.90;;;;;;5064254;28;21059;-86
2021/07/02 11:22:39;;;;;;;1.45;1.35;;;11.30;99.90;;;;;;5054896;28;20393;-86
2021/07/02 11:25:08;;;;;;;1.37;1.27;;;11.30;99.90;;;;;;5055850;28;20664;-86
2021/07/02 11:27:44;;;;;;;1.35;1.10;;;11.20;99.90;;;;;;5060765;28;20398;-87
2021/07/02 11:32:59;;;;;;;1.27;1.17;;;11.30;99.90;;;;;;5056207;28;20439;-86
2021/07/02 11:35:31;;;;;;;1.20;1.10;;;11.30;99.90;;;;;;5072305;28;20511;-85
2021/07/02 11:38:18;;;;;;;1.50;1.10;;;11.30;99.90;;;;;;5063973;28;20390;-86
2021/07/02 11:40:55;;;;;;;1.65;1.55;;;11.30;99.90;;;;;;5064049;28;21023;-87
2021/07/02 11:43:35;;;;;;;1.90;1.70;;;11.30;99.90;;;;;;5060547;28;20397;-88
2021/07/02 11:46:15;;;;;;;1.52;1.38;;;11.30;99.90;;;;;;5073094;28;20439;-86
2021/07/02 11:48:57;;;;;;;1.90;1.10;;;11.30;99.90;;;;;;5065007;28;20384;-87
2021/07/02 11:51:30;;;;;;;1.40;1.20;;;11.30;99.90;;;;;;5051497;28;20919;-87
2021/07/02 11:53:59;;;;;;;1.80;1.10;;;11.30;99.90;;;;;;5056315;28;20407;-86
2021/07/02 11:56:34;;;;;;;1.50;1.08;;;11.20;99.90;;;;;;5054440;28;20394;-87
2021/07/02 11:59:06;;;;;;;1.20;1.00;;;11.20;99.90;;;;;;5060835;28;20422;-87
2021/07/02 12:01:38;;;;;;;0.93;0.90;;;11.10;99.90;;;;;;5062430;28;20393;-86
2021/07/02 12:04:17;;;;;;;3.17;1.05;;;11.10;99.90;;;;;;5054231;28;20411;-85
2021/07/02 12:06:53;;;;;;;1.10;1.07;;;11.10;99.90;;;;;;5061870;28;20425;-84
2021/07/02 12:09:27;;;;;;;1.20;1.10;;;11.10;99.90;;;;;;5058816;28;20403;-85
2021/07/02 12:11:59;;;;;;;2.05;1.00;;;11.10;99.90;;;;;;5059399;28;20459;-85
2021/07/02 12:14:32;;;;;;;1.50;1.10;;;11.00;99.90;;;;;;5063931;28;20428;-86
2021/07/02 12:17:01;;;;;;;1.73;1.30;;;11.00;99.90;;;;;;5061112;28;20431;-87
2021/07/02 12:19:34;;;;;;;1.20;1.10;;;11.00;99.90;;;;;;5051805;28;20407;-87
2021/07/02 12:22:07;;;;;;;1.50;1.40;;;11.00;99.90;;;;;;5051718;28;20829;-85
2021/07/02 12:24:39;;;;;;;2.25;1.20;;;11.00;99.90;;;;;;5053058;28;20422;-88
2021/07/02 12:27:14;;;;;;;1.08;1.02;;;10.90;99.90;;;;;;5054918;28;20398;-86
2021/07/02 12:29:42;;;;;;;1.75;1.20;;;10.90;99.90;;;;;;5058787;28;20384;-85
2021/07/02 12:32:11;;;;;;;2.05;1.00;;;10.90;99.90;;;;;;5063098;28;20389;-85
2021/07/02 12:34:41;;;;;;;1.05;1.00;;;10.90;99.90;;;;;;5059202;28;20901;-86
2021/07/02 12:37:10;;;;;;;1.10;0.97;;;10.90;99.90;;;;;;5051335;28;20954;-85
2021/07/02 12:39:38;;;;;;;0.95;0.95;;;10.90;99.90;;;;;;5051177;28;20396;-85
2021/07/02 12:42:18;;;;;;;1.30;1.10;;;10.80;99.90;;;;;;5051330;28;20428;-89
2021/07/02 12:44:49;;;;;;;2.60;1.17;;;10.80;99.90;;;;;;5064622;28;20386;-85
2021/07/02 12:47:17;;;;;;;0.90;0.90;;;10.80;99.90;;;;;;5070548;28;20382;-87
2021/07/02 12:50:05;;;;;;;1.63;1.00;;;10.80;99.90;;;;;;5069860;28;20420;-87
2021/07/02 12:55:17;;;;;;;2.13;1.40;;;10.70;99.90;;;;;;5060488;28;20445;-86
2021/07/02 12:57:49;;;;;;;2.17;1.20;;;10.70;99.90;;;;;;5064893;28;20382;-85
2021/07/02 13:00:22;;;;;;;1.60;1.08;;;10.60;99.90;;;;;;5055877;28;20403;-86
2021/07/02 13:03:00;;;;;;;1.35;1.05;;;10.60;99.90;;;;;;5068315;28;20774;-83
2021/07/02 13:05:38;;;;;;;1.02;0.82;;;10.50;99.90;;;;;;5051838;28;20402;-86
2021/07/02 13:08:13;;;;;;;1.10;0.82;;;10.50;99.90;;;;;;5055544;28;20409;-85